sensor_id;sensor_type;location;lat;lon;timestamp;temperature;humidity
36990;DHT22;22898;52.102;5.776;2023-11-22T00:00:29;12.70;99.90
36990;DHT22;22898;52.102;5.776;2023-11-22T00:02:56;12.60;99.90
36990;DHT22;22898;52.102;5.776;2023-11-22T00:05:21;12.70;99.90
36990;DHT22;22898;52.102;5.776;2023-11-22T00:07:47;12.40;99.90
36990;DHT22;22898;52.102;5.776;2023-11-22T00:10:13;12.40;99.90
36990;DHT22;22898;52.102;5.776;2023-11-22T00:12:39;12.40;99.90
36990;DHT22;22898;52.102;5.776;2023-11-22T00:15:05;12.30;99.90
36990;DHT22;22898;52.102;5.776;2023-11-22T00:17:33;12.30;99.90
36990;DHT22;22898;52.102;5.776;2023-11-22T00:19:59;12.30;99.90
36990;DHT22;22898;52.102;5.776;2023-11-22T00:22:27;12.20;99.90
36990;DHT22;22898;52.102;5.776;2023-11-22T00:24:53;12.10;99.90
36990;DHT22;22898;52.102;5.776;2023-11-22T00:27:19;12.10;99.90
36990;DHT22;22898;52.102;5.776;2023-11-22T00:29:45;11.90;99.90
36990;DHT22;22898;52.102;5.776;2023-11-22T00:32:11;11.90;99.90
36990;DHT22;22898;52.102;5.776;2023-11-22T00:34:37;11.70;99.90
36990;DHT22;22898;52.102;5.776;2023-11-22T00:37:03;11.80;99.90
36990;DHT22;22898;52.102;5.776;2023-11-22T00:39:28;11.80;99.90
36990;DHT22;22898;52.102;5.776;2023-11-22T00:41:54;11.80;99.90
36990;DHT22;22898;52.102;5.776;2023-11-22T00:44:21;11.80;99.90
36990;DHT22;22898;52.102;5.776;2023-11-22T00:46:46;11.80;99.90
36990;DHT22;22898;52.102;5.776;2023-11-22T00:49:12;11.80;99.90
36990;DHT22;22898;52.102;5.776;2023-11-22T00:51:38;11.80;99.90
36990;DHT22;22898;52.102;5.776;2023-11-22T00:54:04;11.80;99.90
36990;DHT22;22898;52.102;5.776;2023-11-22T00:56:30;11.70;99.90
36990;DHT22;22898;52.102;5.776;2023-11-22T00:58:56;11.80;99.90
36990;DHT22;22898;52.102;5.776;2023-11-22T01:01:25;11.80;99.90
36990;DHT22;22898;52.102;5.776;2023-11-22T01:03:51;11.80;99.90
36990;DHT22;22898;52.102;5.776;2023-11-22T01:06:16;11.70;99.90
36990;DHT22;22898;52.102;5.776;2023-11-22T01:08:43;11.80;99.90
36990;DHT22;22898;52.102;5.776;2023-11-22T01:11:09;11.70;99.90
36990;DHT22;22898;52.102;5.776;2023-11-22T01:13:34;11.70;99.90
36990;DHT22;22898;52.102;5.776;2023-11-22T01:16:09;11.60;99.90
36990;DHT22;22898;52.102;5.776;2023-11-22T01:18:35;11.50;99.90
36990;DHT22;22898;52.102;5.776;2023-11-22T01:21:01;11.40;99.90
36990;DHT22;22898;52.102;5.776;2023-11-22T01:23:28;11.40;99.90
36990;DHT22;22898;52.102;5.776;2023-11-22T01:25:54;11.40;99.90
36990;DHT22;22898;52.102;5.776;2023-11-22T01:28:19;11.40;99.90
36990;DHT22;22898;52.102;5.776;2023-11-22T01:30:45;11.50;99.90
36990;DHT22;22898;52.102;5.776;2023-11-22T01:33:11;11.50;99.90
36990;DHT22;22898;52.102;5.776;2023-11-22T01:35:37;11.30;99.90
36990;DHT22;22898;52.102;5.776;2023-11-22T01:38:04;11.20;99.90
36990;DHT22;22898;52.102;5.776;2023-11-22T01:40:30;11.10;99.90
36990;DHT22;22898;52.102;5.776;2023-11-22T01:42:56;11.10;99.90
36990;DHT22;22898;52.102;5.776;2023-11-22T01:45:21;11.00;99.90
36990;DHT22;22898;52.102;5.776;2023-11-22T01:47:47;11.00;99.90
36990;DHT22;22898;52.102;5.776;2023-11-22T01:50:13;10.90;99.90
36990;DHT22;22898;52.102;5.776;2023-11-22T01:52:40;10.60;99.90
36990;DHT22;22898;52.102;5.776;2023-11-22T01:55:06;10.50;99.90
36990;DHT22;22898;52.102;5.776;2023-11-22T01:57:34;10.60;99.90
36990;DHT22;22898;52.102;5.776;2023-11-22T02:00:03;10.60;99.90
36990;DHT22;22898;52.102;5.776;2023-11-22T02:02:33;10.70;99.90
36990;DHT22;22898;52.102;5.776;2023-11-22T02:04:59;10.80;99.90
36990;DHT22;22898;52.102;5.776;2023-11-22T02:07:29;10.80;99.90
36990;DHT22;22898;52.102;5.776;2023-11-22T02:09:54;10.80;99.90
36990;DHT22;22898;52.102;5.776;2023-11-22T02:12:21;10.70;99.90
36990;DHT22;22898;52.102;5.776;2023-11-22T02:14:48;10.70;99.90
36990;DHT22;22898;52.102;5.776;2023-11-22T02:17:13;10.70;99.90
36990;DHT22;22898;52.102;5.776;2023-11-22T02:19:39;10.70;99.90
36990;DHT22;22898;52.102;5.776;2023-11-22T02:22:04;10.70;99.90
36990;DHT22;22898;52.102;5.776;2023-11-22T02:24:30;10.70;99.90
36990;DHT22;22898;52.102;5.776;2023-11-22T02:26:55;10.60;99.90
36990;DHT22;22898;52.102;5.776;2023-11-22T02:29:21;10.60;99.90
36990;DHT22;22898;52.102;5.776;2023-11-22T02:31:47;10.60;99.90
36990;DHT22;22898;52.102;5.776;2023-11-22T02:34:13;10.60;99.90
36990;DHT22;22898;52.102;5.776;2023-11-22T02:36:42;10.50;99.90
36990;DHT22;22898;52.102;5.776;2023-11-22T02:39:09;10.60;99.90
36990;DHT22;22898;52.102;5.776;2023-11-22T02:41:34;10.60;99.90
36990;DHT22;22898;52.102;5.776;2023-11-22T02:44:01;10.60;99.90
36990;DHT22;22898;52.102;5.776;2023-11-22T02:46:26;10.60;99.90
36990;DHT22;22898;52.102;5.776;2023-11-22T02:48:52;10.60;99.90
36990;DHT22;22898;52.102;5.776;2023-11-22T02:51:19;10.60;99.90
36990;DHT22;22898;52.102;5.776;2023-11-22T02:53:46;10.50;99.90
36990;DHT22;22898;52.102;5.776;2023-11-22T02:56:14;10.50;99.90
36990;DHT22;22898;52.102;5.776;2023-11-22T02:58:40;10.50;99.90
36990;DHT22;22898;52.102;5.776;2023-11-22T03:01:06;10.50;99.90
36990;DHT22;22898;52.102;5.776;2023-11-22T03:03:33;10.30;99.90
36990;DHT22;22898;52.102;5.776;2023-11-22T03:05:59;10.20;99.90
36990;DHT22;22898;52.102;5.776;2023-11-22T03:08:24;10.10;99.90
36990;DHT22;22898;52.102;5.776;2023-11-22T03:10:50;10.10;99.90
36990;DHT22;22898;52.102;5.776;2023-11-22T03:13:16;10.10;99.90
36990;DHT22;22898;52.102;5.776;2023-11-22T03:15:42;10.10;99.90
36990;DHT22;22898;52.102;5.776;2023-11-22T03:18:08;10.10;99.90
36990;DHT22;22898;52.102;5.776;2023-11-22T03:20:34;10.00;99.90
36990;DHT22;22898;52.102;5.776;2023-11-22T03:22:59;10.00;99.90
36990;DHT22;22898;52.102;5.776;2023-11-22T03:25:25;10.00;99.90
36990;DHT22;22898;52.102;5.776;2023-11-22T03:27:51;10.00;99.90
36990;DHT22;22898;52.102;5.776;2023-11-22T03:30:17;9.90;99.90
36990;DHT22;22898;52.102;5.776;2023-11-22T03:32:43;9.90;99.90
36990;DHT22;22898;52.102;5.776;2023-11-22T03:35:09;10.00;99.90
36990;DHT22;22898;52.102;5.776;2023-11-22T03:37:36;9.90;99.90
36990;DHT22;22898;52.102;5.776;2023-11-22T03:40:01;9.90;99.90
36990;DHT22;22898;52.102;5.776;2023-11-22T03:42:28;9.90;99.90
36990;DHT22;22898;52.102;5.776;2023-11-22T03:44:54;9.90;99.90
36990;DHT22;22898;52.102;5.776;2023-11-22T03:47:19;10.00;99.90
36990;DHT22;22898;52.102;5.776;2023-11-22T03:49:45;10.00;99.90
36990;DHT22;22898;52.102;5.776;2023-11-22T03:52:11;10.00;99.90
36990;DHT22;22898;52.102;5.776;2023-11-22T03:54:37;9.90;99.90
36990;DHT22;22898;52.102;5.776;2023-11-22T03:57:03;9.90;99.90
36990;DHT22;22898;52.102;5.776;2023-11-22T03:59:29;9.90;99.90
36990;DHT22;22898;52.102;5.776;2023-11-22T04:01:55;9.80;99.90
36990;DHT22;22898;52.102;5.776;2023-11-22T04:04:21;9.70;99.90
36990;DHT22;22898;52.102;5.776;2023-11-22T04:06:47;9.70;99.90
36990;DHT22;22898;52.102;5.776;2023-11-22T04:09:12;9.70;99.90
36990;DHT22;22898;52.102;5.776;2023-11-22T04:11:38;9.70;99.90
36990;DHT22;22898;52.102;5.776;2023-11-22T04:14:04;9.70;99.90
36990;DHT22;22898;52.102;5.776;2023-11-22T04:16:30;9.70;99.90
36990;DHT22;22898;52.102;5.776;2023-11-22T04:18:55;9.60;99.90
36990;DHT22;22898;52.102;5.776;2023-11-22T04:21:21;9.60;99.90
36990;DHT22;22898;52.102;5.776;2023-11-22T04:23:47;9.60;99.90
36990;DHT22;22898;52.102;5.776;2023-11-22T04:26:14;9.60;99.90
36990;DHT22;22898;52.102;5.776;2023-11-22T04:28:41;9.40;99.90
36990;DHT22;22898;52.102;5.776;2023-11-22T04:31:06;9.40;99.90
36990;DHT22;22898;52.102;5.776;2023-11-22T04:33:34;9.40;99.90
36990;DHT22;22898;52.102;5.776;2023-11-22T04:36:00;9.50;99.90
36990;DHT22;22898;52.102;5.776;2023-11-22T04:38:26;9.50;99.90
36990;DHT22;22898;52.102;5.776;2023-11-22T04:40:52;9.50;99.90
36990;DHT22;22898;52.102;5.776;2023-11-22T04:43:17;9.50;99.90
36990;DHT22;22898;52.102;5.776;2023-11-22T04:45:43;9.50;99.90
36990;DHT22;22898;52.102;5.776;2023-11-22T04:48:08;9.50;99.90
36990;DHT22;22898;52.102;5.776;2023-11-22T04:50:35;9.50;99.90
36990;DHT22;22898;52.102;5.776;2023-11-22T04:53:01;9.50;99.90
36990;DHT22;22898;52.102;5.776;2023-11-22T04:55:29;9.50;99.90
36990;DHT22;22898;52.102;5.776;2023-11-22T04:57:55;9.50;99.90
36990;DHT22;22898;52.102;5.776;2023-11-22T05:00:21;9.50;99.90
36990;DHT22;22898;52.102;5.776;2023-11-22T05:02:48;9.50;99.90
36990;DHT22;22898;52.102;5.776;2023-11-22T05:05:15;9.40;99.90
36990;DHT22;22898;52.102;5.776;2023-11-22T05:07:40;9.50;99.90
36990;DHT22;22898;52.102;5.776;2023-11-22T05:10:06;9.40;99.90
36990;DHT22;22898;52.102;5.776;2023-11-22T05:12:35;9.30;99.90
36990;DHT22;22898;52.102;5.776;2023-11-22T05:15:04;9.20;99.90
36990;DHT22;22898;52.102;5.776;2023-11-22T05:17:30;9.20;99.90
36990;DHT22;22898;52.102;5.776;2023-11-22T05:19:55;9.20;99.90
36990;DHT22;22898;52.102;5.776;2023-11-22T05:22:21;9.10;99.90
36990;DHT22;22898;52.102;5.776;2023-11-22T05:24:48;9.10;99.90
36990;DHT22;22898;52.102;5.776;2023-11-22T05:27:14;9.20;99.90
36990;DHT22;22898;52.102;5.776;2023-11-22T05:29:39;9.30;99.90
36990;DHT22;22898;52.102;5.776;2023-11-22T05:32:05;9.40;99.90
36990;DHT22;22898;52.102;5.776;2023-11-22T05:34:32;9.30;99.90
36990;DHT22;22898;52.102;5.776;2023-11-22T05:36:57;9.30;99.90
36990;DHT22;22898;52.102;5.776;2023-11-22T05:39:23;9.40;99.90
36990;DHT22;22898;52.102;5.776;2023-11-22T05:41:50;9.40;99.90
36990;DHT22;22898;52.102;5.776;2023-11-22T05:44:15;9.50;99.90
36990;DHT22;22898;52.102;5.776;2023-11-22T05:46:41;9.60;99.90
36990;DHT22;22898;52.102;5.776;2023-11-22T05:49:07;9.60;99.90
36990;DHT22;22898;52.102;5.776;2023-11-22T05:51:33;9.60;99.90
36990;DHT22;22898;52.102;5.776;2023-11-22T05:54:01;9.60;99.90
36990;DHT22;22898;52.102;5.776;2023-11-22T05:56:26;9.60;99.90
36990;DHT22;22898;52.102;5.776;2023-11-22T05:58:52;9.60;99.90
36990;DHT22;22898;52.102;5.776;2023-11-22T06:01:18;9.50;99.90
36990;DHT22;22898;52.102;5.776;2023-11-22T06:03:43;9.60;99.90
36990;DHT22;22898;52.102;5.776;2023-11-22T06:06:09;9.70;99.90
36990;DHT22;22898;52.102;5.776;2023-11-22T06:08:35;9.70;99.90
36990;DHT22;22898;52.102;5.776;2023-11-22T06:11:00;9.70;99.90
36990;DHT22;22898;52.102;5.776;2023-11-22T06:13:26;9.70;99.90
36990;DHT22;22898;52.102;5.776;2023-11-22T06:15:53;9.80;99.90
36990;DHT22;22898;52.102;5.776;2023-11-22T06:18:19;9.90;99.90
36990;DHT22;22898;52.102;5.776;2023-11-22T06:20:45;9.90;99.90
36990;DHT22;22898;52.102;5.776;2023-11-22T06:23:12;9.70;99.90
36990;DHT22;22898;52.102;5.776;2023-11-22T06:25:38;9.70;99.90
36990;DHT22;22898;52.102;5.776;2023-11-22T06:28:07;9.70;99.90
36990;DHT22;22898;52.102;5.776;2023-11-22T06:30:33;9.60;99.90
36990;DHT22;22898;52.102;5.776;2023-11-22T06:32:59;9.60;99.90
36990;DHT22;22898;52.102;5.776;2023-11-22T06:35:25;9.70;99.90
36990;DHT22;22898;52.102;5.776;2023-11-22T06:37:51;9.70;99.90
36990;DHT22;22898;52.102;5.776;2023-11-22T06:40:16;9.80;99.90
36990;DHT22;22898;52.102;5.776;2023-11-22T06:42:48;9.80;99.90
36990;DHT22;22898;52.102;5.776;2023-11-22T06:45:14;9.80;99.90
36990;DHT22;22898;52.102;5.776;2023-11-22T06:47:43;9.80;99.90
36990;DHT22;22898;52.102;5.776;2023-11-22T06:50:09;9.80;99.90
36990;DHT22;22898;52.102;5.776;2023-11-22T06:52:36;9.90;99.90
36990;DHT22;22898;52.102;5.776;2023-11-22T06:55:04;9.90;99.90
36990;DHT22;22898;52.102;5.776;2023-11-22T06:57:30;9.90;99.90
36990;DHT22;22898;52.102;5.776;2023-11-22T06:59:58;9.90;99.90
36990;DHT22;22898;52.102;5.776;2023-11-22T07:02:24;9.80;99.90
36990;DHT22;22898;52.102;5.776;2023-11-22T07:04:50;9.80;99.90
36990;DHT22;22898;52.102;5.776;2023-11-22T07:07:15;9.80;99.90
36990;DHT22;22898;52.102;5.776;2023-11-22T07:09:44;9.80;99.90
36990;DHT22;22898;52.102;5.776;2023-11-22T07:12:11;9.70;99.90
36990;DHT22;22898;52.102;5.776;2023-11-22T07:14:37;9.70;99.90
36990;DHT22;22898;52.102;5.776;2023-11-22T07:17:03;9.60;99.90
36990;DHT22;22898;52.102;5.776;2023-11-22T07:19:32;9.30;99.90
36990;DHT22;22898;52.102;5.776;2023-11-22T07:21:59;9.40;99.90
36990;DHT22;22898;52.102;5.776;2023-11-22T07:24:25;9.50;99.90
36990;DHT22;22898;52.102;5.776;2023-11-22T07:26:51;9.60;99.90
36990;DHT22;22898;52.102;5.776;2023-11-22T07:29:16;9.70;99.90
36990;DHT22;22898;52.102;5.776;2023-11-22T07:31:42;9.80;99.90
36990;DHT22;22898;52.102;5.776;2023-11-22T07:34:08;9.90;99.90
36990;DHT22;22898;52.102;5.776;2023-11-22T07:36:36;9.70;99.90
36990;DHT22;22898;52.102;5.776;2023-11-22T07:39:03;9.90;99.90
36990;DHT22;22898;52.102;5.776;2023-11-22T07:41:29;10.00;99.90
36990;DHT22;22898;52.102;5.776;2023-11-22T07:43:56;9.90;99.90
36990;DHT22;22898;52.102;5.776;2023-11-22T07:46:22;9.90;99.90
36990;DHT22;22898;52.102;5.776;2023-11-22T07:48:47;10.00;99.90
36990;DHT22;22898;52.102;5.776;2023-11-22T07:51:14;10.00;99.90
36990;DHT22;22898;52.102;5.776;2023-11-22T07:53:42;10.00;99.90
36990;DHT22;22898;52.102;5.776;2023-11-22T07:56:09;9.90;99.90
36990;DHT22;22898;52.102;5.776;2023-11-22T07:58:37;10.10;99.90
36990;DHT22;22898;52.102;5.776;2023-11-22T08:01:03;10.10;99.90
36990;DHT22;22898;52.102;5.776;2023-11-22T08:03:32;10.20;99.90
36990;DHT22;22898;52.102;5.776;2023-11-22T08:05:57;10.40;99.90
36990;DHT22;22898;52.102;5.776;2023-11-22T08:08:23;10.50;99.90
36990;DHT22;22898;52.102;5.776;2023-11-22T08:10:49;10.60;99.90
36990;DHT22;22898;52.102;5.776;2023-11-22T08:13:19;10.60;99.90
36990;DHT22;22898;52.102;5.776;2023-11-22T08:15:48;10.70;99.90
36990;DHT22;22898;52.102;5.776;2023-11-22T08:18:14;10.80;99.90
36990;DHT22;22898;52.102;5.776;2023-11-22T08:20:42;10.90;99.90
36990;DHT22;22898;52.102;5.776;2023-11-22T08:23:09;11.00;99.90
36990;DHT22;22898;52.102;5.776;2023-11-22T08:25:35;11.00;99.90
36990;DHT22;22898;52.102;5.776;2023-11-22T08:28:00;11.20;99.90
36990;DHT22;22898;52.102;5.776;2023-11-22T08:30:26;11.20;99.90
36990;DHT22;22898;52.102;5.776;2023-11-22T08:32:52;11.00;99.90
36990;DHT22;22898;52.102;5.776;2023-11-22T08:35:20;10.90;99.90
36990;DHT22;22898;52.102;5.776;2023-11-22T08:37:51;11.10;99.90
36990;DHT22;22898;52.102;5.776;2023-11-22T08:40:17;11.20;99.90
36990;DHT22;22898;52.102;5.776;2023-11-22T08:42:46;11.30;99.90
36990;DHT22;22898;52.102;5.776;2023-11-22T08:45:12;11.30;99.90
36990;DHT22;22898;52.102;5.776;2023-11-22T08:47:39;11.40;99.90
36990;DHT22;22898;52.102;5.776;2023-11-22T08:50:06;11.50;99.90
36990;DHT22;22898;52.102;5.776;2023-11-22T08:52:32;11.50;99.90
36990;DHT22;22898;52.102;5.776;2023-11-22T08:54:58;11.60;99.90
36990;DHT22;22898;52.102;5.776;2023-11-22T08:57:28;11.70;99.90
36990;DHT22;22898;52.102;5.776;2023-11-22T08:59:54;11.60;99.90
36990;DHT22;22898;52.102;5.776;2023-11-22T09:02:19;11.70;99.90
36990;DHT22;22898;52.102;5.776;2023-11-22T09:04:48;11.70;99.90
36990;DHT22;22898;52.102;5.776;2023-11-22T09:07:13;11.70;99.90
36990;DHT22;22898;52.102;5.776;2023-11-22T09:09:42;11.80;99.90
36990;DHT22;22898;52.102;5.776;2023-11-22T09:12:08;11.90;99.90
36990;DHT22;22898;52.102;5.776;2023-11-22T09:14:39;12.00;99.90
36990;DHT22;22898;52.102;5.776;2023-11-22T09:17:06;12.00;99.90
36990;DHT22;22898;52.102;5.776;2023-11-22T09:19:32;11.90;99.90
36990;DHT22;22898;52.102;5.776;2023-11-22T09:21:59;12.00;99.90
36990;DHT22;22898;52.102;5.776;2023-11-22T09:24:25;12.10;99.90
36990;DHT22;22898;52.102;5.776;2023-11-22T09:26:50;12.20;99.90
36990;DHT22;22898;52.102;5.776;2023-11-22T09:29:16;12.30;99.90
36990;DHT22;22898;52.102;5.776;2023-11-22T09:31:41;12.40;99.90
36990;DHT22;22898;52.102;5.776;2023-11-22T09:34:13;12.50;99.90
36990;DHT22;22898;52.102;5.776;2023-11-22T09:36:39;12.60;99.90
36990;DHT22;22898;52.102;5.776;2023-11-22T09:39:05;12.70;99.90
36990;DHT22;22898;52.102;5.776;2023-11-22T09:41:34;12.70;99.90
36990;DHT22;22898;52.102;5.776;2023-11-22T09:44:00;12.90;99.90
36990;DHT22;22898;52.102;5.776;2023-11-22T09:46:26;13.00;99.90
36990;DHT22;22898;52.102;5.776;2023-11-22T09:48:53;13.00;99.90
36990;DHT22;22898;52.102;5.776;2023-11-22T09:51:23;12.70;99.90
36990;DHT22;22898;52.102;5.776;2023-11-22T09:53:56;12.90;99.90
36990;DHT22;22898;52.102;5.776;2023-11-22T09:56:24;12.90;99.90
36990;DHT22;22898;52.102;5.776;2023-11-22T09:58:55;13.00;99.90
36990;DHT22;22898;52.102;5.776;2023-11-22T10:01:24;13.10;99.90
36990;DHT22;22898;52.102;5.776;2023-11-22T10:04:02;13.10;99.90
36990;DHT22;22898;52.102;5.776;2023-11-22T10:06:33;13.30;99.90
36990;DHT22;22898;52.102;5.776;2023-11-22T10:09:04;13.40;99.90
36990;DHT22;22898;52.102;5.776;2023-11-22T10:11:33;13.40;99.90
36990;DHT22;22898;52.102;5.776;2023-11-22T10:13:59;13.30;99.90
36990;DHT22;22898;52.102;5.776;2023-11-22T10:16:24;13.40;99.90
36990;DHT22;22898;52.102;5.776;2023-11-22T10:18:50;13.50;99.90
36990;DHT22;22898;52.102;5.776;2023-11-22T10:23:46;13.50;99.90
36990;DHT22;22898;52.102;5.776;2023-11-22T10:26:13;13.50;99.90
36990;DHT22;22898;52.102;5.776;2023-11-22T10:28:41;13.30;99.90
36990;DHT22;22898;52.102;5.776;2023-11-22T10:31:08;13.30;99.90
36990;DHT22;22898;52.102;5.776;2023-11-22T10:33:39;13.40;99.90
36990;DHT22;22898;52.102;5.776;2023-11-22T10:36:06;13.40;99.90
36990;DHT22;22898;52.102;5.776;2023-11-22T10:38:33;13.40;99.90
36990;DHT22;22898;52.102;5.776;2023-11-22T10:40:59;13.20;99.90
36990;DHT22;22898;52.102;5.776;2023-11-22T10:43:30;13.20;99.90
36990;DHT22;22898;52.102;5.776;2023-11-22T10:45:58;13.50;99.90
36990;DHT22;22898;52.102;5.776;2023-11-22T10:48:24;13.60;99.90
36990;DHT22;22898;52.102;5.776;2023-11-22T10:50:53;13.40;99.90
36990;DHT22;22898;52.102;5.776;2023-11-22T10:53:33;13.50;99.90
36990;DHT22;22898;52.102;5.776;2023-11-22T10:56:14;13.60;99.90
36990;DHT22;22898;52.102;5.776;2023-11-22T10:58:56;13.90;99.90
36990;DHT22;22898;52.102;5.776;2023-11-22T11:01:26;14.00;99.90
36990;DHT22;22898;52.102;5.776;2023-11-22T11:04:24;14.20;99.90
36990;DHT22;22898;52.102;5.776;2023-11-22T11:06:54;14.30;99.90
36990;DHT22;22898;52.102;5.776;2023-11-22T11:09:22;14.20;99.90
36990;DHT22;22898;52.102;5.776;2023-11-22T11:11:51;14.30;99.90
36990;DHT22;22898;52.102;5.776;2023-11-22T11:14:17;14.40;99.90
36990;DHT22;22898;52.102;5.776;2023-11-22T11:16:43;14.40;99.90
36990;DHT22;22898;52.102;5.776;2023-11-22T11:19:16;14.50;99.90
36990;DHT22;22898;52.102;5.776;2023-11-22T11:21:47;14.40;99.90
36990;DHT22;22898;52.102;5.776;2023-11-22T11:24:13;14.20;99.90
36990;DHT22;22898;52.102;5.776;2023-11-22T11:26:39;14.20;99.90
36990;DHT22;22898;52.102;5.776;2023-11-22T11:29:05;14.40;99.90
36990;DHT22;22898;52.102;5.776;2023-11-22T11:31:33;14.10;99.90
36990;DHT22;22898;52.102;5.776;2023-11-22T11:34:05;14.00;99.90
36990;DHT22;22898;52.102;5.776;2023-11-22T11:36:32;14.20;99.90
36990;DHT22;22898;52.102;5.776;2023-11-22T11:38:59;14.30;99.90
36990;DHT22;22898;52.102;5.776;2023-11-22T11:41:31;14.40;99.90
36990;DHT22;22898;52.102;5.776;2023-11-22T11:43:58;14.40;99.90
36990;DHT22;22898;52.102;5.776;2023-11-22T11:46:26;14.40;99.90
36990;DHT22;22898;52.102;5.776;2023-11-22T11:48:53;14.00;99.90
36990;DHT22;22898;52.102;5.776;2023-11-22T11:51:24;13.80;99.90
36990;DHT22;22898;52.102;5.776;2023-11-22T11:53:50;13.70;99.90
36990;DHT22;22898;52.102;5.776;2023-11-22T11:56:15;13.80;99.90
36990;DHT22;22898;52.102;5.776;2023-11-22T11:58:43;14.00;99.90
36990;DHT22;22898;52.102;5.776;2023-11-22T12:01:09;14.20;99.90
36990;DHT22;22898;52.102;5.776;2023-11-22T12:03:37;14.20;99.90
36990;DHT22;22898;52.102;5.776;2023-11-22T12:06:07;14.40;99.90
36990;DHT22;22898;52.102;5.776;2023-11-22T12:08:33;14.10;99.90
36990;DHT22;22898;52.102;5.776;2023-11-22T12:11:02;14.00;99.90
36990;DHT22;22898;52.102;5.776;2023-11-22T12:13:30;14.00;99.90
36990;DHT22;22898;52.102;5.776;2023-11-22T12:15:55;14.20;99.90
36990;DHT22;22898;52.102;5.776;2023-11-22T12:18:22;13.80;99.90
36990;DHT22;22898;52.102;5.776;2023-11-22T12:21:06;13.80;99.90
36990;DHT22;22898;52.102;5.776;2023-11-22T12:23:32;13.70;99.90
36990;DHT22;22898;52.102;5.776;2023-11-22T12:25:58;13.80;99.90
36990;DHT22;22898;52.102;5.776;2023-11-22T12:28:26;13.90;99.90
36990;DHT22;22898;52.102;5.776;2023-11-22T12:30:52;14.10;99.90
36990;DHT22;22898;52.102;5.776;2023-11-22T12:33:18;14.20;99.90
36990;DHT22;22898;52.102;5.776;2023-11-22T12:35:45;14.40;99.90
36990;DHT22;22898;52.102;5.776;2023-11-22T12:38:11;14.20;99.90
36990;DHT22;22898;52.102;5.776;2023-11-22T12:40:37;14.00;99.90
36990;DHT22;22898;52.102;5.776;2023-11-22T12:43:03;14.10;99.90
36990;DHT22;22898;52.102;5.776;2023-11-22T12:45:30;14.10;99.90
36990;DHT22;22898;52.102;5.776;2023-11-22T12:47:57;14.10;99.90
36990;DHT22;22898;52.102;5.776;2023-11-22T12:52:59;14.40;99.90
36990;DHT22;22898;52.102;5.776;2023-11-22T12:55:24;14.60;99.90
36990;DHT22;22898;52.102;5.776;2023-11-22T12:58:00;14.80;99.90
36990;DHT22;22898;52.102;5.776;2023-11-22T13:00:26;14.50;99.90
36990;DHT22;22898;52.102;5.776;2023-11-22T13:02:55;14.60;99.90
36990;DHT22;22898;52.102;5.776;2023-11-22T13:05:21;14.70;99.90
36990;DHT22;22898;52.102;5.776;2023-11-22T13:07:47;14.90;99.90
36990;DHT22;22898;52.102;5.776;2023-11-22T13:10:13;15.10;99.90
36990;DHT22;22898;52.102;5.776;2023-11-22T13:12:44;15.20;99.90
36990;DHT22;22898;52.102;5.776;2023-11-22T13:15:11;15.20;99.90
36990;DHT22;22898;52.102;5.776;2023-11-22T13:17:38;15.10;99.90
36990;DHT22;22898;52.102;5.776;2023-11-22T13:20:06;14.50;99.90
36990;DHT22;22898;52.102;5.776;2023-11-22T13:22:42;14.70;99.90
36990;DHT22;22898;52.102;5.776;2023-11-22T13:25:11;14.90;99.90
36990;DHT22;22898;52.102;5.776;2023-11-22T13:27:38;14.80;99.90
36990;DHT22;22898;52.102;5.776;2023-11-22T13:30:05;15.00;99.90
36990;DHT22;22898;52.102;5.776;2023-11-22T13:32:31;15.10;99.90
36990;DHT22;22898;52.102;5.776;2023-11-22T13:34:57;14.80;99.90
36990;DHT22;22898;52.102;5.776;2023-11-22T13:37:23;14.90;99.90
36990;DHT22;22898;52.102;5.776;2023-11-22T13:39:49;14.90;99.90
36990;DHT22;22898;52.102;5.776;2023-11-22T13:42:15;14.90;99.90
36990;DHT22;22898;52.102;5.776;2023-11-22T13:44:40;14.90;99.90
36990;DHT22;22898;52.102;5.776;2023-11-22T13:47:15;14.90;99.90
36990;DHT22;22898;52.102;5.776;2023-11-22T13:49:41;14.90;99.90
36990;DHT22;22898;52.102;5.776;2023-11-22T13:52:08;14.80;99.90
36990;DHT22;22898;52.102;5.776;2023-11-22T13:54:34;14.40;99.90
36990;DHT22;22898;52.102;5.776;2023-11-22T13:57:03;14.40;99.90
36990;DHT22;22898;52.102;5.776;2023-11-22T13:59:29;14.50;99.90
36990;DHT22;22898;52.102;5.776;2023-11-22T14:01:55;14.60;99.90
36990;DHT22;22898;52.102;5.776;2023-11-22T14:04:20;14.10;99.90
36990;DHT22;22898;52.102;5.776;2023-11-22T14:06:46;14.00;99.90
36990;DHT22;22898;52.102;5.776;2023-11-22T14:09:12;14.10;99.90
36990;DHT22;22898;52.102;5.776;2023-11-22T14:11:40;14.20;99.90
36990;DHT22;22898;52.102;5.776;2023-11-22T14:14:05;14.00;99.90
36990;DHT22;22898;52.102;5.776;2023-11-22T14:16:31;14.10;99.90
36990;DHT22;22898;52.102;5.776;2023-11-22T14:18:57;14.20;99.90
36990;DHT22;22898;52.102;5.776;2023-11-22T14:21:25;14.30;99.90
36990;DHT22;22898;52.102;5.776;2023-11-22T14:23:50;14.40;99.90
36990;DHT22;22898;52.102;5.776;2023-11-22T14:26:18;14.20;99.90
36990;DHT22;22898;52.102;5.776;2023-11-22T14:28:43;14.20;99.90
36990;DHT22;22898;52.102;5.776;2023-11-22T14:31:09;13.90;99.90
36990;DHT22;22898;52.102;5.776;2023-11-22T14:33:34;13.90;99.90
36990;DHT22;22898;52.102;5.776;2023-11-22T14:36:01;13.90;99.90
36990;DHT22;22898;52.102;5.776;2023-11-22T14:38:26;13.70;99.90
36990;DHT22;22898;52.102;5.776;2023-11-22T14:40:52;13.70;99.90
36990;DHT22;22898;52.102;5.776;2023-11-22T14:43:18;13.60;99.90
36990;DHT22;22898;52.102;5.776;2023-11-22T14:45:43;13.60;99.90
36990;DHT22;22898;52.102;5.776;2023-11-22T14:48:09;13.90;99.90
36990;DHT22;22898;52.102;5.776;2023-11-22T14:50:36;14.10;99.90
36990;DHT22;22898;52.102;5.776;2023-11-22T14:53:01;14.10;99.90
36990;DHT22;22898;52.102;5.776;2023-11-22T14:55:27;14.20;99.90
36990;DHT22;22898;52.102;5.776;2023-11-22T14:57:54;14.00;99.90
36990;DHT22;22898;52.102;5.776;2023-11-22T15:00:22;13.90;99.90
36990;DHT22;22898;52.102;5.776;2023-11-22T15:02:48;13.90;99.90
36990;DHT22;22898;52.102;5.776;2023-11-22T15:05:18;13.90;99.90
36990;DHT22;22898;52.102;5.776;2023-11-22T15:07:43;13.80;99.90
36990;DHT22;22898;52.102;5.776;2023-11-22T15:10:09;13.80;99.90
36990;DHT22;22898;52.102;5.776;2023-11-22T15:12:36;14.00;99.90
36990;DHT22;22898;52.102;5.776;2023-11-22T15:15:02;13.40;99.90
36990;DHT22;22898;52.102;5.776;2023-11-22T15:17:28;13.30;99.90
36990;DHT22;22898;52.102;5.776;2023-11-22T15:19:54;13.50;99.90
36990;DHT22;22898;52.102;5.776;2023-11-22T15:22:20;13.10;99.90
36990;DHT22;22898;52.102;5.776;2023-11-22T15:24:45;13.00;99.90
36990;DHT22;22898;52.102;5.776;2023-11-22T15:27:11;13.10;99.90
36990;DHT22;22898;52.102;5.776;2023-11-22T15:29:37;13.20;99.90
36990;DHT22;22898;52.102;5.776;2023-11-22T15:32:03;13.00;99.90
36990;DHT22;22898;52.102;5.776;2023-11-22T15:34:30;12.90;99.90
36990;DHT22;22898;52.102;5.776;2023-11-22T15:36:56;12.90;99.90